Time;durP1;ratioP1;P1;durP2;ratioP2;P2;SDS_P1;SDS_P2;PMS_P1;PMS_P2;Temp;Humidity;BMP_temperature;BMP_pressure;BME280_temperature;BME280_humidity;BME280_pressure;Samples;Min_cycle;Max_cycle;Signal;HPM_P1;HPM_P2
2022/03/23 00:01:41;;;;;;;;;;;7.30;99.90;;;;;;5013549;28;19925;-51
2022/03/23 00:04:07;;;;;;;;;;;7.30;99.90;;;;;;4996118;28;19995;-49
2022/03/23 00:06:35;;;;;;;;;;;;;;;;;;5013509;28;19925;-50
2022/03/23 00:09:01;;;;;;;;;;;;;;;;;;5013353;28;20422;-48
2022/03/23 00:11:26;;;;;;;;;;;7.40;99.90;;;;;;5013454;28;19977;-52
2022/03/23 00:13:53;;;;;;;;;;;;;;;;;;5015721;28;19987;-51
2022/03/23 00:16:19;;;;;;;;;;;7.10;99.90;;;;;;5017268;28;20020;-50
2022/03/23 00:18:46;;;;;;;;;;;;;;;;;;5017429;28;20025;-48
2022/03/23 00:21:11;;;;;;;;;;;6.90;99.90;;;;;;5017378;28;19925;-51
2022/03/23 00:23:37;;;;;;;;;;;7.10;99.90;;;;;;5017469;28;19933;-50
2022/03/23 00:26:02;;;;;;;;;;;7.00;99.90;;;;;;5017202;28;19931;-49
2022/03/23 00:28:28;;;;;;;;;;;7.00;99.90;;;;;;5017161;28;19925;-48
2022/03/23 00:30:53;;;;;;;;;;;6.90;99.90;;;;;;5017067;28;19926;-50
2022/03/23 00:33:21;;;;;;;;;;;6.90;99.90;;;;;;5017211;28;19929;-49
2022/03/23 00:35:49;;;;;;;;;;;6.90;99.90;;;;;;5017114;28;19971;-48
2022/03/23 00:38:16;;;;;;;;;;;6.90;99.90;;;;;;5016966;28;19948;-50
2022/03/23 00:40:43;;;;;;;;;;;7.00;99.90;;;;;;5016930;28;19926;-50
2022/03/23 00:43:08;;;;;;;;;;;7.00;99.90;;;;;;4999357;28;19926;-52
2022/03/23 00:45:34;;;;;;;;;;;6.90;99.90;;;;;;5016818;28;20273;-51
2022/03/23 00:47:59;;;;;;;;;;;6.80;99.90;;;;;;5016984;28;20008;-48
2022/03/23 00:50:25;;;;;;;;;;;6.80;99.90;;;;;;5016685;28;20296;-52
2022/03/23 00:52:50;;;;;;;;;;;6.80;99.90;;;;;;5016709;28;19972;-51
2022/03/23 00:55:16;;;;;;;;;;;6.70;99.90;;;;;;5016721;28;20362;-48
2022/03/23 00:57:42;;;;;;;;;;;6.70;99.90;;;;;;5016569;28;19926;-49
2022/03/23 01:00:12;;;;;;;;;;;6.70;99.90;;;;;;5016452;28;19926;-49
2022/03/23 01:02:38;;;;;;;;;;;6.70;99.90;;;;;;5016742;28;19957;-50
2022/03/23 01:05:04;;;;;;;;;;;6.80;99.90;;;;;;5016653;28;19971;-48
2022/03/23 01:07:29;;;;;;;;;;;6.80;99.90;;;;;;5016528;28;19925;-49
2022/03/23 01:09:55;;;;;;;;;;;6.70;99.90;;;;;;5016380;28;19926;-53
2022/03/23 01:12:20;;;;;;;;;;;6.70;99.90;;;;;;5016587;28;20024;-50
2022/03/23 01:14:46;;;;;;;;;;;6.60;99.90;;;;;;5016242;28;19932;-48
2022/03/23 01:17:12;;;;;;;;;;;6.50;99.90;;;;;;4998934;28;19933;-50
2022/03/23 01:19:38;;;;;;;;;;;6.50;99.90;;;;;;5016238;28;19926;-50
2022/03/23 01:22:04;;;;;;;;;;;6.50;99.90;;;;;;5016165;28;19925;-50
2022/03/23 01:24:30;;;;;;;;;;;6.30;99.90;;;;;;4998536;28;20299;-49
2022/03/23 01:26:56;;;;;;;;;;;6.30;99.90;;;;;;5016066;28;19933;-51
2022/03/23 01:29:21;;;;;;;;;;;6.20;99.90;;;;;;5015982;28;19925;-48
2022/03/23 01:31:46;;;;;;;;;;;6.20;99.90;;;;;;5016158;28;19933;-48
2022/03/23 01:34:12;;;;;;;;;;;6.20;99.90;;;;;;5015972;28;19971;-48
2022/03/23 01:36:37;;;;;;;;;;;6.20;99.90;;;;;;5015930;28;19929;-48
2022/03/23 01:39:03;;;;;;;;;;;6.20;99.90;;;;;;5015778;28;20414;-51
2022/03/23 01:41:29;;;;;;;;;;;6.10;99.90;;;;;;5015893;28;19933;-48
2022/03/23 01:43:55;;;;;;;;;;;6.10;99.90;;;;;;5015827;28;19929;-49
2022/03/23 01:46:20;;;;;;;;;;;6.10;99.90;;;;;;5015967;28;19925;-47
2022/03/23 01:48:46;;;;;;;;;;;6.00;99.90;;;;;;5015756;28;20338;-48
2022/03/23 01:51:13;;;;;;;;;;;6.00;99.90;;;;;;5015740;28;19952;-49
2022/03/23 01:53:39;;;;;;;;;;;6.00;99.90;;;;;;5015733;28;19949;-50
2022/03/23 01:56:04;;;;;;;;;;;5.90;99.90;;;;;;5015546;28;19926;-50
2022/03/23 01:58:30;;;;;;;;;;;5.90;99.90;;;;;;5015239;28;20397;-49
2022/03/23 02:00:55;;;;;;;;;;;5.90;99.90;;;;;;5015497;28;19925;-51
2022/03/23 02:03:21;;;;;;;;;;;5.80;99.90;;;;;;5015447;28;19926;-50
2022/03/23 02:05:47;;;;;;;;;;;5.80;99.90;;;;;;5015295;28;19925;-49
2022/03/23 02:08:13;;;;;;;;;;;5.80;99.90;;;;;;5015311;28;19957;-48
2022/03/23 02:10:38;;;;;;;;;;;5.80;99.90;;;;;;5015275;28;19971;-49
2022/03/23 02:13:04;;;;;;;;;;;5.80;99.90;;;;;;5015122;28;19925;-48
2022/03/23 02:15:29;;;;;;;;;;;5.70;99.90;;;;;;5015087;28;19932;-49
2022/03/23 02:17:56;;;;;;;;;;;5.70;99.90;;;;;;5015323;28;19965;-52
2022/03/23 02:20:22;;;;;;;;;;;5.60;99.90;;;;;;5015403;28;19925;-53
2022/03/23 02:22:48;;;;;;;;;;;5.60;99.90;;;;;;4997472;28;19925;-49
2022/03/23 02:25:18;;;;;;;;;;;5.60;99.90;;;;;;5014899;28;20277;-51
2022/03/23 02:27:43;;;;;;;;;;;5.60;99.90;;;;;;5014888;28;19932;-49
2022/03/23 02:30:09;;;;;;;;;;;5.50;99.90;;;;;;5015117;28;19929;-49
2022/03/23 02:32:35;;;;;;;;;;;5.50;99.90;;;;;;5014915;28;20433;-48
2022/03/23 02:35:01;;;;;;;;;;;5.40;99.90;;;;;;5014790;28;19932;-48
2022/03/23 02:37:27;;;;;;;;;;;5.80;99.90;;;;;;5014146;28;20016;-49
2022/03/23 02:39:52;;;;;;;;;;;5.70;99.90;;;;;;5014625;28;19936;-48
2022/03/23 02:42:18;;;;;;;;;;;5.70;99.90;;;;;;5014486;28;19987;-49
2022/03/23 02:44:43;;;;;;;;;;;5.50;99.90;;;;;;5014805;28;19926;-48
2022/03/23 02:47:09;;;;;;;;;;;5.70;99.90;;;;;;5014652;28;19926;-50
2022/03/23 02:52:08;;;;;;;;;;;5.50;99.90;;;;;;5047209;22;19936;-50
2022/03/23 03:02:55;;;;;;;;;;;;;;;;;;5033477;28;19936;-49
2022/03/23 03:05:23;;;;;;;;;;;;;;;;;;5033643;28;19933;-50
2022/03/23 03:10:35;;;;;;;;;;;5.20;99.90;;;;;;5033359;28;20338;-49
2022/03/23 03:13:01;;;;;;;;;;;5.20;99.90;;;;;;5033360;28;19925;-49
2022/03/23 03:15:27;;;;;;;;;;;5.20;99.90;;;;;;5033219;28;19925;-49
2022/03/23 03:17:57;;;;;;;;;;;5.30;99.90;;;;;;5033371;28;19991;-50
2022/03/23 03:20:23;;;;;;;;;;;5.10;99.90;;;;;;5033182;28;19925;-49
2022/03/23 03:22:49;;;;;;;;;;;5.00;99.90;;;;;;5033184;28;19925;-49
2022/03/23 03:25:15;;;;;;;;;;;5.00;99.90;;;;;;5033020;28;19991;-48
2022/03/23 03:27:41;;;;;;;;;;;5.00;99.90;;;;;;5033219;28;20347;-49
2022/03/23 03:30:08;;;;;;;;;;;4.90;99.90;;;;;;5032943;28;19935;-48
2022/03/23 03:32:34;;;;;;;;;;;4.90;99.90;;;;;;5015446;28;19932;-48
2022/03/23 03:35:00;;;;;;;;;;;4.80;99.90;;;;;;5033085;28;19925;-50
2022/03/23 03:37:25;;;;;;;;;;;4.80;99.90;;;;;;5033029;28;19925;-49
2022/03/23 03:39:51;;;;;;;;;;;4.80;99.90;;;;;;5032888;28;19979;-49
2022/03/23 03:42:18;;;;;;;;;;;4.70;99.90;;;;;;5032922;28;19932;-49
2022/03/23 03:44:48;;;;;;;;;;;4.80;99.90;;;;;;5032706;28;19987;-48
2022/03/23 03:47:14;;;;;;;;;;;4.80;99.90;;;;;;5032244;28;19976;-51
2022/03/23 03:49:39;;;;;;;;;;;4.70;99.90;;;;;;5032557;28;19960;-49
2022/03/23 03:52:05;;;;;;;;;;;4.70;99.90;;;;;;5033160;28;19925;-48
2022/03/23 03:54:31;;;;;;;;;;;4.70;99.90;;;;;;5052619;28;19925;-51
2022/03/23 03:56:56;;;;;;;;;;;4.70;99.90;;;;;;5052591;28;20004;-49
2022/03/23 03:59:22;;;;;;;;;;;4.70;99.90;;;;;;5052261;28;19976;-49
2022/03/23 04:01:48;;;;;;;;;;;4.70;99.90;;;;;;5052507;28;20386;-48
2022/03/23 04:04:14;;;;;;;;;;;4.60;99.90;;;;;;5034866;28;19971;-49
2022/03/23 04:06:39;;;;;;;;;;;4.60;99.90;;;;;;5052695;28;19932;-49
2022/03/23 04:09:05;;;;;;;;;;;4.60;99.90;;;;;;5052523;28;19928;-48
2022/03/23 04:11:30;;;;;;;;;;;4.60;99.90;;;;;;5052467;28;19925;-48
2022/03/23 04:13:56;;;;;;;;;;;4.50;99.90;;;;;;5052290;28;20012;-48
2022/03/23 04:16:21;;;;;;;;;;;4.50;99.90;;;;;;5052274;28;20344;-50
2022/03/23 04:18:47;;;;;;;;;;;4.40;99.90;;;;;;5052342;28;19924;-51
2022/03/23 04:21:12;;;;;;;;;;;4.40;99.90;;;;;;5052464;28;19977;-48
2022/03/23 04:23:38;;;;;;;;;;;4.40;99.90;;;;;;5034749;28;19979;-49
2022/03/23 04:26:04;;;;;;;;;;;4.40;99.90;;;;;;5052387;28;19974;-49
2022/03/23 04:28:30;;;;;;;;;;;4.40;99.90;;;;;;5052274;28;20394;-49
2022/03/23 04:30:55;;;;;;;;;;;4.40;99.90;;;;;;5034639;28;19994;-50
2022/03/23 04:33:21;;;;;;;;;;;4.40;99.90;;;;;;5052458;28;20472;-49
2022/03/23 04:35:46;;;;;;;;;;;4.30;99.90;;;;;;5052388;28;19925;-49
2022/03/23 04:38:11;;;;;;;;;;;4.30;99.90;;;;;;5034388;28;20410;-51
2022/03/23 04:40:37;;;;;;;;;;;4.30;99.90;;;;;;5052399;28;19931;-50
2022/03/23 04:43:03;;;;;;;;;;;4.30;99.90;;;;;;5052290;28;19947;-50
2022/03/23 04:45:28;;;;;;;;;;;4.40;99.90;;;;;;5052138;28;19925;-49
2022/03/23 04:47:54;;;;;;;;;;;4.50;99.90;;;;;;5052208;28;20015;-50
2022/03/23 04:50:20;;;;;;;;;;;4.40;99.90;;;;;;5051496;28;19925;-49
2022/03/23 04:52:46;;;;;;;;;;;4.20;99.90;;;;;;5052199;28;19965;-49
2022/03/23 04:55:13;;;;;;;;;;;4.20;99.90;;;;;;5034160;28;19925;-49
2022/03/23 04:57:39;;;;;;;;;;;4.20;99.90;;;;;;5051977;28;19972;-53
2022/03/23 05:00:10;;;;;;;;;;;;;;;;;;5054428;28;19972;-50
2022/03/23 05:02:39;;;;;;;;;;;4.20;99.90;;;;;;5055677;28;19932;-51
2022/03/23 05:05:06;;;;;;;;;;;4.10;99.90;;;;;;5037684;28;20292;-50
2022/03/23 05:07:31;;;;;;;;;;;4.20;99.90;;;;;;5055599;28;19929;-50
2022/03/23 05:09:57;;;;;;;;;;;4.00;99.90;;;;;;5055493;28;20387;-50
2022/03/23 05:12:22;;;;;;;;;;;3.70;99.90;;;;;;5055715;28;20027;-49
2022/03/23 05:14:47;;;;;;;;;;;4.10;99.90;;;;;;5055641;28;19944;-50
2022/03/23 05:17:13;;;;;;;;;;;4.20;99.90;;;;;;5055539;28;19971;-49
2022/03/23 05:19:38;;;;;;;;;;;4.20;99.90;;;;;;5021093;28;19928;-49
2022/03/23 05:22:04;;;;;;;;;;;4.00;99.90;;;;;;5055358;28;20294;-52
2022/03/23 05:24:29;;;;;;;;;;;3.90;99.90;;;;;;5055107;28;20069;-49
2022/03/23 05:26:55;;;;;;;;;;;3.90;99.90;;;;;;5037164;28;19928;-49
2022/03/23 05:29:20;;;;;;;;;;;4.00;99.90;;;;;;5055251;28;19967;-48
2022/03/23 05:31:46;;;;;;;;;;;3.90;99.90;;;;;;5055260;28;19924;-48
2022/03/23 05:34:11;;;;;;;;;;;4.00;99.90;;;;;;5055342;28;20015;-50
2022/03/23 05:36:37;;;;;;;;;;;3.90;99.90;;;;;;5055057;28;20294;-50
2022/03/23 05:39:02;;;;;;;;;;;4.00;99.90;;;;;;5055049;28;20058;-49
2022/03/23 05:41:28;;;;;;;;;;;3.90;99.90;;;;;;5054787;28;19925;-50
2022/03/23 05:43:53;;;;;;;;;;;4.00;99.90;;;;;;5055099;28;19932;-48
2022/03/23 05:46:19;;;;;;;;;;;3.90;99.90;;;;;;5054830;28;19925;-51
2022/03/23 05:48:45;;;;;;;;;;;4.00;99.90;;;;;;5037293;28;19925;-49
2022/03/23 05:51:10;;;;;;;;;;;4.00;99.90;;;;;;5054473;28;20012;-51
2022/03/23 05:53:36;;;;;;;;;;;4.00;99.90;;;;;;5054732;28;19939;-49
2022/03/23 05:56:04;;;;;;;;;;;4.00;99.90;;;;;;5054624;28;19971;-49
2022/03/23 05:58:30;;;;;;;;;;;4.00;99.90;;;;;;5054653;28;20015;-49
2022/03/23 06:00:57;;;;;;;;;;;4.10;99.90;;;;;;5054708;28;20020;-48
2022/03/23 06:03:22;;;;;;;;;;;4.10;99.90;;;;;;5054748;28;19925;-49
2022/03/23 06:05:48;;;;;;;;;;;4.20;99.90;;;;;;5054465;28;19978;-48
2022/03/23 06:08:13;;;;;;;;;;;4.30;99.90;;;;;;5054567;28;19931;-52
2022/03/23 06:10:39;;;;;;;;;;;4.30;99.90;;;;;;5053695;28;19925;-50
2022/03/23 06:13:04;;;;;;;;;;;4.40;99.90;;;;;;5054457;28;19928;-52
2022/03/23 06:15:30;;;;;;;;;;;4.50;99.90;;;;;;5054773;28;19925;-50
2022/03/23 06:17:55;;;;;;;;;;;4.60;99.90;;;;;;5054835;28;19975;-49
2022/03/23 06:20:21;;;;;;;;;;;4.60;99.90;;;;;;5054262;28;19947;-50
2022/03/23 06:22:46;;;;;;;;;;;4.80;99.90;;;;;;5054298;28;19978;-50
2022/03/23 06:25:11;;;;;;;;;;;4.90;99.90;;;;;;5054069;28;19947;-50
2022/03/23 06:27:38;;;;;;;;;;;5.10;99.90;;;;;;5054219;28;19929;-51
2022/03/23 06:30:04;;;;;;;;;;;5.70;99.90;;;;;;5054365;28;19925;-53
2022/03/23 06:32:29;;;;;;;;;;;6.60;99.90;;;;;;5054093;28;19925;-50
2022/03/23 06:34:55;;;;;;;;;;;7.40;99.90;;;;;;5019769;28;20283;-51
2022/03/23 06:37:21;;;;;;;;;;;8.10;99.90;;;;;;5036081;28;19925;-52
2022/03/23 06:39:46;;;;;;;;;;;8.80;99.90;;;;;;5053707;28;19948;-51
2022/03/23 06:42:12;;;;;;;;;;;9.30;99.90;;;;;;5036483;28;19970;-52
2022/03/23 06:44:41;;;;;;;;;;;9.80;99.90;;;;;;5053827;28;20290;-50
2022/03/23 06:47:06;;;;;;;;;;;10.30;99.90;;;;;;5036018;28;19924;-49
2022/03/23 06:49:32;;;;;;;;;;;10.80;99.90;;;;;;5035823;28;19974;-49
2022/03/23 06:51:57;;;;;;;;;;;11.20;99.90;;;;;;5053309;28;20264;-49
2022/03/23 06:54:23;;;;;;;;;;;11.50;99.90;;;;;;5053600;28;19924;-49
2022/03/23 06:56:51;;;;;;;;;;;11.70;99.90;;;;;;5053743;28;19928;-47
2022/03/23 06:59:20;;;;;;;;;;;12.00;99.90;;;;;;5053520;28;20019;-47
2022/03/23 07:01:45;;;;;;;;;;;12.00;99.90;;;;;;5053693;28;19929;-49
2022/03/23 07:04:11;;;;;;;;;;;12.40;99.90;;;;;;5053592;28;19925;-46
2022/03/23 07:06:36;;;;;;;;;;;12.50;99.90;;;;;;5053317;28;20414;-47
2022/03/23 07:11:46;;;;;;;;;;;12.70;99.90;;;;;;5053461;28;19935;-49
2022/03/23 07:14:11;;;;;;;;;;;12.40;99.70;;;;;;5053469;28;20019;-51
2022/03/23 07:16:37;;;;;;;;;;;12.20;99.90;;;;;;5053183;28;19935;-49
2022/03/23 07:19:02;;;;;;;;;;;11.70;99.90;;;;;;5035328;28;19929;-50
2022/03/23 07:21:27;;;;;;;;;;;11.00;99.90;;;;;;5053059;28;20318;-49
2022/03/23 07:23:53;;;;;;;;;;;10.80;99.90;;;;;;5053472;28;19928;-49
2022/03/23 07:26:19;;;;;;;;;;;10.40;99.90;;;;;;5053199;28;19928;-49
2022/03/23 07:28:44;;;;;;;;;;;10.40;99.90;;;;;;5053075;28;19925;-49
2022/03/23 07:31:10;;;;;;;;;;;10.20;99.90;;;;;;5053612;28;19925;-47
2022/03/23 07:33:35;;;;;;;;;;;10.10;99.90;;;;;;5053222;28;19932;-49
2022/03/23 07:36:02;;;;;;;;;;;10.10;99.90;;;;;;5052730;28;19925;-48
2022/03/23 07:38:27;;;;;;;;;;;10.00;99.90;;;;;;5052895;28;20058;-51
2022/03/23 07:40:53;;;;;;;;;;;10.00;99.90;;;;;;5052948;28;20019;-46
2022/03/23 07:43:18;;;;;;;;;;;10.00;99.90;;;;;;5052855;28;19924;-49
2022/03/23 07:45:44;;;;;;;;;;;10.00;99.90;;;;;;5052651;28;19932;-49
2022/03/23 07:48:09;;;;;;;;;;;10.20;99.90;;;;;;5052687;28;19932;-48
2022/03/23 07:50:35;;;;;;;;;;;10.10;99.90;;;;;;5052595;28;20378;-49
2022/03/23 07:53:00;;;;;;;;;;;10.20;99.90;;;;;;5052714;28;19979;-50
2022/03/23 07:55:26;;;;;;;;;;;10.40;99.90;;;;;;5034615;28;19978;-47
2022/03/23 07:57:51;;;;;;;;;;;10.50;99.90;;;;;;5052575;28;19931;-47
2022/03/23 08:00:17;;;;;;;;;;;10.70;99.90;;;;;;5052395;28;19925;-47
2022/03/23 08:02:42;;;;;;;;;;;10.80;99.90;;;;;;5053124;28;19925;-47
2022/03/23 08:05:09;;;;;;;;;;;10.90;99.90;;;;;;5052512;28;20314;-48
2022/03/23 08:07:35;;;;;;;;;;;11.00;99.90;;;;;;5052719;28;19963;-48
2022/03/23 08:10:00;;;;;;;;;;;11.20;99.90;;;;;;5034960;28;19925;-48
2022/03/23 08:12:26;;;;;;;;;;;11.30;99.90;;;;;;5052490;28;19925;-50
2022/03/23 08:14:52;;;;;;;;;;;11.40;99.90;;;;;;5034445;28;20378;-48
2022/03/23 08:17:17;;;;;;;;;;;11.50;99.90;;;;;;5052271;28;19977;-48
2022/03/23 08:19:43;;;;;;;;;;;11.60;99.90;;;;;;5052263;28;19932;-48
2022/03/23 08:22:09;;;;;;;;;;;11.80;99.90;;;;;;5052495;28;19924;-49
2022/03/23 08:24:34;;;;;;;;;;;12.00;99.90;;;;;;5052358;28;19932;-47
2022/03/23 08:27:00;;;;;;;;;;;12.10;99.90;;;;;;5052296;28;19924;-48
2022/03/23 08:29:25;;;;;;;;;;;12.10;94.50;;;;;;5052261;28;19925;-48
2022/03/23 08:31:52;;;;;;;;;;;12.20;93.70;;;;;;5034404;28;19960;-48
2022/03/23 08:34:18;;;;;;;;;;;12.40;94.00;;;;;;5053431;28;20333;-50
2022/03/23 08:36:43;;;;;;;;;;;12.50;92.60;;;;;;5056267;28;19929;-49
2022/03/23 08:39:09;;;;;;;;;;;12.70;94.70;;;;;;5055941;28;20382;-48
2022/03/23 08:41:34;;;;;;;;;;;12.70;85.60;;;;;;5056052;28;20004;-51
2022/03/23 08:44:00;;;;;;;;;;;12.90;89.60;;;;;;5056304;28;19928;-51
2022/03/23 08:46:26;;;;;;;;;;;13.10;88.60;;;;;;5055953;28;19925;-48
2022/03/23 08:48:52;;;;;;;;;;;13.20;84.40;;;;;;5055770;28;19968;-48
2022/03/23 08:51:19;;;;;;;;;;;13.30;80.50;;;;;;5055833;28;20078;-48
2022/03/23 08:53:45;;;;;;;;;;;13.40;82.20;;;;;;5055997;28;19925;-49
2022/03/23 08:56:11;;;;;;;;;;;13.50;75.80;;;;;;5055751;28;19950;-48
2022/03/23 08:58:37;;;;;;;;;;;13.60;75.80;;;;;;5055628;28;20047;-48
2022/03/23 09:01:03;;;;;;;;;;;13.70;76.60;;;;;;5055721;28;19931;-49
2022/03/23 09:03:28;;;;;;;;;;;13.70;73.50;;;;;;5037906;28;19925;-50
2022/03/23 09:05:54;;;;;;;;;;;13.80;76.50;;;;;;5055657;28;19974;-49
2022/03/23 09:08:19;;;;;;;;;;;14.00;76.50;;;;;;5055647;28;19924;-49
2022/03/23 09:10:44;;;;;;;;;;;14.20;73.50;;;;;;5055540;28;19925;-48
2022/03/23 09:13:10;;;;;;;;;;;14.40;73.60;;;;;;5037845;28;19925;-52
2022/03/23 09:15:35;;;;;;;;;;;14.60;68.60;;;;;;5021048;28;19931;-49
2022/03/23 09:18:02;;;;;;;;;;;14.60;65.50;;;;;;5055282;28;19925;-52
2022/03/23 09:20:30;;;;;;;;;;;14.60;63.40;;;;;;5055315;28;19979;-50
2022/03/23 09:22:56;;;;;;;;;;;14.80;66.90;;;;;;5055456;28;19925;-49
2022/03/23 09:25:22;;;;;;;;;;;15.00;61.60;;;;;;5055156;28;20333;-49
2022/03/23 09:27:48;;;;;;;;;;;15.00;58.80;;;;;;5055119;28;19971;-48
2022/03/23 09:30:14;;;;;;;;;;;15.10;58.60;;;;;;5037128;28;19925;-48
2022/03/23 09:32:39;;;;;;;;;;;15.30;57.00;;;;;;5054965;28;20298;-49
2022/03/23 09:35:05;;;;;;;;;;;15.30;54.50;;;;;;5037123;28;19932;-49
2022/03/23 09:37:49;;;;;;;;;;;15.40;54.70;;;;;;5055119;28;19932;-48
2022/03/23 09:40:20;;;;;;;;;;;15.50;55.60;;;;;;5055013;28;20279;-50
2022/03/23 09:42:46;;;;;;;;;;;15.60;52.60;;;;;;5054820;28;19979;-49
2022/03/23 09:45:19;;;;;;;;;;;15.60;51.00;;;;;;5054722;28;19929;-50
2022/03/23 09:47:44;;;;;;;;;;;15.70;50.90;;;;;;5036967;28;20015;-49
2022/03/23 09:50:11;;;;;;;;;;;15.80;52.40;;;;;;5054857;28;20114;-48
2022/03/23 09:52:37;;;;;;;;;;;15.90;50.90;;;;;;5054457;28;19925;-50
2022/03/23 09:55:04;;;;;;;;;;;15.90;51.30;;;;;;5036784;28;19924;-50
2022/03/23 09:57:29;;;;;;;;;;;16.10;52.10;;;;;;5054500;28;19993;-49
2022/03/23 09:59:55;;;;;;;;;;;16.10;49.40;;;;;;5036577;28;20438;-48
2022/03/23 10:02:32;;;;;;;;;;;16.20;48.70;;;;;;5054582;28;19947;-49
2022/03/23 10:05:16;;;;;;;;;;;16.10;48.50;;;;;;5054830;28;19924;-51
2022/03/23 10:07:48;;;;;;;;;;;16.30;50.20;;;;;;5036752;28;19925;-52
2022/03/23 10:10:32;;;;;;;;;;;16.50;49.30;;;;;;5054351;28;19932;-51
2022/03/23 10:13:36;;;;;;;;;;;16.40;46.30;;;;;;5054521;28;19929;-52
2022/03/23 10:16:20;;;;;;;;;;;16.60;48.20;;;;;;5054140;28;19929;-51
2022/03/23 10:18:53;;;;;;;;;;;16.60;47.00;;;;;;5036213;28;19936;-51
2022/03/23 10:21:26;;;;;;;;;;;16.80;47.60;;;;;;5036556;28;19991;-50
2022/03/23 10:23:58;;;;;;;;;;;16.70;45.70;;;;;;5054246;28;19925;-53
2022/03/23 10:26:24;;;;;;;;;;;16.80;44.70;;;;;;5054250;28;19925;-48
2022/03/23 10:28:49;;;;;;;;;;;16.90;42.90;;;;;;5053933;28;20032;-51
2022/03/23 10:31:16;;;;;;;;;;;16.90;43.80;;;;;;5054293;28;19948;-51
2022/03/23 10:33:42;;;;;;;;;;;16.80;42.30;;;;;;5036320;28;19925;-52
2022/03/23 10:36:08;;;;;;;;;;;17.00;44.90;;;;;;5054173;28;19931;-52
2022/03/23 10:38:37;;;;;;;;;;;17.00;44.80;;;;;;5053861;28;19921;-51
2022/03/23 10:41:11;;;;;;;;;;;17.10;45.00;;;;;;5053684;28;20379;-49
2022/03/23 10:43:37;;;;;;;;;;;17.10;44.80;;;;;;5054064;28;19928;-52
2022/03/23 10:46:09;;;;;;;;;;;17.20;44.90;;;;;;5036023;28;20016;-51
2022/03/23 10:48:35;;;;;;;;;;;17.20;42.30;;;;;;5036233;28;20375;-49
2022/03/23 10:51:01;;;;;;;;;;;17.20;42.00;;;;;;5053534;28;19925;-50
2022/03/23 10:53:53;;;;;;;;;;;17.30;42.40;;;;;;5035918;28;19932;-51
2022/03/23 10:56:28;;;;;;;;;;;17.40;40.90;;;;;;5030633;28;20426;-49
2022/03/23 10:59:13;;;;;;;;;;;17.30;41.30;;;;;;5035468;28;20435;-51
2022/03/23 11:01:55;;;;;;;;;;;17.30;41.80;;;;;;5053310;28;20023;-50
2022/03/23 11:04:20;;;;;;;;;;;17.50;42.40;;;;;;5053198;28;19925;-49
2022/03/23 11:06:46;;;;;;;;;;;17.60;43.30;;;;;;5053432;28;19925;-49
2022/03/23 11:15:46;;;;;;;;;;;17.60;41.80;;;;;;5053408;28;19944;-49
2022/03/23 11:17:45;;;;;;;;;;;17.80;43.10;;;;;;5053130;28;19931;-48
2022/03/23 11:20:11;;;;;;;;;;;17.70;41.50;;;;;;5035292;28;19925;-48
2022/03/23 11:22:36;;;;;;;;;;;17.80;42.60;;;;;;5053222;28;19963;-50
2022/03/23 11:25:03;;;;;;;;;;;17.90;43.40;;;;;;5053064;28;20387;-49
2022/03/23 11:27:30;;;;;;;;;;;17.80;41.40;;;;;;5053265;28;20314;-48
2022/03/23 11:29:56;;;;;;;;;;;17.80;40.10;;;;;;5053101;28;20007;-49
2022/03/23 11:32:28;;;;;;;;;;;17.90;39.90;;;;;;5053082;28;19925;-49
2022/03/23 11:34:55;;;;;;;;;;;18.00;42.20;;;;;;5035291;28;20062;-48
2022/03/23 11:37:21;;;;;;;;;;;18.10;40.60;;;;;;5052994;28;19931;-51
2022/03/23 11:39:48;;;;;;;;;;;18.20;41.70;;;;;;5052913;28;20019;-48
2022/03/23 11:42:14;;;;;;;;;;;18.10;40.50;;;;;;5052912;28;19932;-50
2022/03/23 11:44:41;;;;;;;;;;;18.10;40.20;;;;;;5052610;28;19971;-52
2022/03/23 11:47:28;;;;;;;;;;;18.20;41.00;;;;;;5052708;28;19970;-51
2022/03/23 11:49:59;;;;;;;;;;;18.20;39.40;;;;;;5052759;28;19975;-49
2022/03/23 11:52:38;;;;;;;;;;;18.40;40.40;;;;;;5034649;28;20455;-50
2022/03/23 11:55:40;;;;;;;;;;;18.30;40.80;;;;;;5052678;28;19927;-48
2022/03/23 11:58:21;;;;;;;;;;;18.40;41.70;;;;;;5052648;28;19925;-52
2022/03/23 12:00:51;;;;;;;;;;;18.40;40.30;;;;;;5052837;28;19932;-51
2022/03/23 12:03:35;;;;;;;;;;;18.50;41.10;;;;;;5052743;28;19932;-51
2022/03/23 12:06:06;;;;;;;;;;;18.50;39.70;;;;;;5052571;28;19933;-51
2022/03/23 12:08:52;;;;;;;;;;;18.60;41.30;;;;;;5052601;28;19925;-48
2022/03/23 12:11:34;;;;;;;;;;;18.50;39.30;;;;;;5056103;28;19931;-50
2022/03/23 12:14:00;;;;;;;;;;;18.50;40.00;;;;;;5056928;28;19955;-48
2022/03/23 12:16:44;;;;;;;;;;;18.50;41.20;;;;;;5056725;28;19976;-48
2022/03/23 12:19:10;;;;;;;;;;;18.50;40.10;;;;;;5056464;28;19924;-48
2022/03/23 12:21:54;;;;;;;;;;;18.60;41.10;;;;;;5056730;28;20328;-48
2022/03/23 12:24:28;;;;;;;;;;;18.60;39.70;;;;;;5056665;28;20259;-50
2022/03/23 12:26:55;;;;;;;;;;;18.50;39.80;;;;;;5056427;28;19928;-49
2022/03/23 12:29:28;;;;;;;;;;;18.70;39.90;;;;;;5056381;28;19925;-51
2022/03/23 12:32:08;;;;;;;;;;;18.60;39.70;;;;;;5056261;28;19960;-52
2022/03/23 12:34:38;;;;;;;;;;;18.60;39.40;;;;;;5038498;28;19924;-51
2022/03/23 12:37:21;;;;;;;;;;;18.70;40.70;;;;;;5056360;28;19924;-51
2022/03/23 12:39:51;;;;;;;;;;;18.70;41.10;;;;;;5056739;28;19936;-51
2022/03/23 12:42:25;;;;;;;;;;;18.80;39.20;;;;;;5056072;28;19925;-49
2022/03/23 12:45:10;;;;;;;;;;;18.80;39.50;;;;;;5038315;28;19975;-48
2022/03/23 12:47:37;;;;;;;;;;;18.80;38.50;;;;;;5056362;28;19943;-49
2022/03/23 12:58:42;;;;;;;;;;;18.70;38.40;;;;;;4994595;28;20388;-51
2022/03/23 13:01:14;;;;;;;;;;;18.80;38.60;;;;;;4994226;28;20365;-50
2022/03/23 13:03:42;;;;;;;;;;;18.90;39.50;;;;;;4994288;28;19926;-50
2022/03/23 13:06:09;;;;;;;;;;;18.90;39.00;;;;;;4994236;28;19933;-49
2022/03/23 13:08:38;;;;;;;;;;;19.10;39.20;;;;;;4994077;28;19926;-49
2022/03/23 13:11:05;;;;;;;;;;;19.10;39.40;;;;;;4994195;28;19932;-50
2022/03/23 13:13:32;;;;;;;;;;;19.10;37.90;;;;;;4993953;28;20016;-49
2022/03/23 13:16:00;;;;;;;;;;;19.10;38.20;;;;;;4994025;28;19926;-48
2022/03/23 13:18:27;;;;;;;;;;;19.10;39.00;;;;;;4993963;28;19926;-49
2022/03/23 13:20:53;;;;;;;;;;;19.10;38.00;;;;;;4993489;28;20372;-51
2022/03/23 13:23:19;;;;;;;;;;;19.10;38.10;;;;;;4977766;28;19933;-48
2022/03/23 13:25:45;;;;;;;;;;;19.20;38.50;;;;;;4993809;28;20307;-51
2022/03/23 13:28:13;;;;;;;;;;;19.20;39.50;;;;;;4993771;28;19930;-52
2022/03/23 13:30:40;;;;;;;;;;;19.30;38.40;;;;;;4993720;28;19940;-48
2022/03/23 13:33:14;;;;;;;;;;;19.40;38.80;;;;;;5045285;28;19964;-49
2022/03/23 13:35:43;;;;;;;;;;;19.30;39.10;;;;;;5055248;28;20107;-49
2022/03/23 13:38:09;;;;;;;;;;;19.20;38.70;;;;;;5055030;28;19971;-52
2022/03/23 13:43:22;;;;;;;;;;;19.30;40.40;;;;;;5055170;28;20369;-52
2022/03/23 13:45:48;;;;;;;;;;;19.50;39.60;;;;;;5055137;28;19925;-52
2022/03/23 13:48:14;;;;;;;;;;;19.40;39.60;;;;;;5055177;28;19932;-50
2022/03/23 13:50:47;;;;;;;;;;;19.50;38.40;;;;;;5054596;28;19925;-52
2022/03/23 13:53:13;;;;;;;;;;;19.60;39.50;;;;;;5055170;28;19921;-49
2022/03/23 13:55:42;;;;;;;;;;;19.50;39.30;;;;;;5055060;28;19929;-51
2022/03/23 13:58:08;;;;;;;;;;;19.60;39.70;;;;;;5054904;28;19924;-48
2022/03/23 14:00:35;;;;;;;;;;;19.60;39.30;;;;;;5054763;28;20225;-50
2022/03/23 14:03:02;;;;;;;;;;;19.80;38.50;;;;;;5054791;28;19932;-49
2022/03/23 14:05:32;;;;;;;;;;;19.50;37.60;;;;;;5054640;28;19947;-48
2022/03/23 14:07:59;;;;;;;;;;;19.70;39.40;;;;;;5055010;28;19925;-51
2022/03/23 14:10:34;;;;;;;;;;;19.70;38.40;;;;;;5037011;28;19925;-50
2022/03/23 14:13:03;;;;;;;;;;;19.30;37.30;;;;;;5054548;28;20015;-52
2022/03/23 14:15:34;;;;;;;;;;;19.40;38.60;;;;;;5054313;28;19929;-48
2022/03/23 14:18:01;;;;;;;;;;;19.40;37.30;;;;;;5054170;28;19924;-52
2022/03/23 14:20:27;;;;;;;;;;;19.40;38.20;;;;;;5054095;28;20356;-49
2022/03/23 14:22:53;;;;;;;;;;;19.40;37.90;;;;;;5054443;28;19925;-50
2022/03/23 14:25:20;;;;;;;;;;;19.30;38.20;;;;;;5054200;28;19931;-52
2022/03/23 14:27:48;;;;;;;;;;;19.40;38.20;;;;;;5054427;28;19960;-51
2022/03/23 14:30:15;;;;;;;;;;;19.50;38.10;;;;;;5054267;28;20441;-48
2022/03/23 14:32:50;;;;;;;;;;;19.50;38.10;;;;;;5053177;28;19932;-50
2022/03/23 14:35:20;;;;;;;;;;;19.50;37.60;;;;;;5054228;28;20015;-49
2022/03/23 14:37:46;;;;;;;;;;;19.40;37.60;;;;;;5054114;28;19979;-49
2022/03/23 14:40:27;;;;;;;;;;;19.50;37.50;;;;;;5054036;28;20015;-49
2022/03/23 14:42:53;;;;;;;;;;;19.50;38.30;;;;;;5053762;28;19931;-49
2022/03/23 14:45:25;;;;;;;;;;;19.60;38.00;;;;;;5053769;28;19925;-52
2022/03/23 14:47:51;;;;;;;;;;;19.50;36.80;;;;;;5053862;28;20011;-51
2022/03/23 14:50:16;;;;;;;;;;;19.50;38.00;;;;;;5053762;28;20023;-52
2022/03/23 14:52:42;;;;;;;;;;;19.50;37.80;;;;;;5053644;28;20300;-48
2022/03/23 14:55:08;;;;;;;;;;;19.20;36.20;;;;;;5053935;28;19924;-48
2022/03/23 14:57:34;;;;;;;;;;;19.30;37.30;;;;;;5054172;28;20059;-50
2022/03/23 15:00:04;;;;;;;;;;;19.20;37.50;;;;;;5052261;28;20007;-50
2022/03/23 15:02:32;;;;;;;;;;;19.10;36.90;;;;;;5053620;28;19977;-48